createdAt,value
2022-08-23T00:04:56.458Z,4.53
2022-08-23T00:07:38.499Z,5.05
2022-08-23T00:10:06.474Z,5.68
2022-08-23T00:12:33.130Z,5.05
2022-08-23T00:14:59.650Z,5.20
2022-08-23T00:17:33.392Z,4.53
2022-08-23T00:20:02.451Z,4.50
2022-08-23T00:22:28.964Z,4.50
2022-08-23T00:24:55.612Z,4.78
2022-08-23T00:27:22.283Z,4.90
2022-08-23T00:29:52.081Z,4.32
2022-08-23T00:32:23.077Z,4.57
2022-08-23T00:34:50.657Z,4.95
2022-08-23T00:37:18.262Z,5.03
2022-08-23T00:39:47.645Z,5.18
2022-08-23T00:42:47.093Z,4.60
2022-08-23T00:45:36.306Z,4.72
2022-08-23T00:48:05.295Z,4.65
2022-08-23T00:50:50.707Z,5.53
2022-08-23T00:53:42.158Z,4.45
2022-08-23T00:56:12.333Z,5.20
2022-08-23T00:58:39.541Z,5.07
2022-08-23T01:01:07.351Z,4.80
2022-08-23T01:03:38.998Z,4.72
2022-08-23T01:06:40.214Z,4.50
2022-08-23T01:09:12.466Z,5.40
2022-08-23T01:12:00.839Z,5.38
2022-08-23T01:14:35.880Z,5.30
2022-08-23T01:17:12.783Z,5.10
2022-08-23T01:19:46.677Z,5.38
2022-08-23T01:22:24.982Z,5.85
2022-08-23T01:25:08.191Z,4.97
2022-08-23T01:27:36.598Z,5.40
2022-08-23T01:30:06.645Z,5.22
2022-08-23T01:32:40.392Z,5.47
2022-08-23T01:35:07.431Z,5.05
2022-08-23T01:37:34.401Z,5.53
2022-08-23T01:40:00.918Z,5.65
2022-08-23T01:42:27.661Z,4.97
2022-08-23T01:44:54.308Z,5.60
2022-08-23T01:47:22.979Z,5.63
2022-08-23T01:49:49.459Z,5.75
2022-08-23T01:52:16.045Z,5.35
2022-08-23T01:54:43.394Z,5.53
2022-08-23T01:57:11.114Z,5.88
2022-08-23T01:59:38.568Z,5.53
2022-08-23T02:02:05.291Z,6.00
2022-08-23T02:04:31.944Z,6.32
2022-08-23T02:06:58.422Z,5.38
2022-08-23T02:09:25.548Z,5.38
2022-08-23T02:11:52.329Z,6.07
2022-08-23T02:14:20.834Z,5.63
2022-08-23T02:17:02.854Z,5.72
2022-08-23T02:19:31.833Z,5.40
2022-08-23T02:21:58.461Z,5.43
2022-08-23T02:24:26.198Z,5.90
2022-08-23T02:26:57.115Z,5.47
2022-08-23T02:29:25.194Z,5.88
2022-08-23T02:31:52.609Z,5.38
2022-08-23T02:34:20.137Z,5.78
2022-08-23T02:36:47.627Z,6.13
2022-08-23T02:39:15.661Z,6.53
2022-08-23T02:41:42.898Z,6.15
2022-08-23T02:44:11.184Z,5.95
2022-08-23T02:46:38.555Z,5.93
2022-08-23T02:49:05.716Z,6.10
2022-08-23T02:51:32.424Z,5.43
2022-08-23T02:53:59.062Z,5.88
2022-08-23T02:56:25.791Z,6.43
2022-08-23T02:58:54.680Z,6.30
2022-08-23T03:01:28.657Z,6.68
2022-08-23T03:03:56.592Z,5.63
2022-08-23T03:06:25.782Z,5.63
2022-08-23T03:08:54.355Z,5.38
2022-08-23T03:11:22.434Z,6.25
2022-08-23T03:13:49.682Z,6.03
2022-08-23T03:16:17.173Z,5.97
2022-08-23T03:18:43.990Z,6.40
2022-08-23T03:21:11.240Z,6.13
2022-08-23T03:23:39.392Z,5.30
2022-08-23T03:26:08.478Z,6.55
2022-08-23T03:28:37.320Z,6.78
2022-08-23T03:31:04.488Z,6.68
2022-08-23T03:33:31.018Z,7.55
2022-08-23T03:36:02.401Z,7.57
2022-08-23T03:38:29.033Z,8.30
2022-08-23T03:40:55.668Z,8.90
2022-08-23T03:43:22.557Z,7.55
2022-08-23T03:45:49.382Z,7.63
2022-08-23T03:48:16.662Z,7.82
2022-08-23T03:50:44.128Z,7.78
2022-08-23T03:53:12.255Z,8.40
2022-08-23T03:55:42.499Z,7.32
2022-08-23T03:58:09.799Z,7.90
2022-08-23T04:00:36.367Z,8.30
2022-08-23T04:03:03.345Z,7.40
2022-08-23T04:05:29.906Z,8.15
2022-08-23T04:07:56.430Z,8.48
2022-08-23T04:10:23.325Z,7.45
2022-08-23T04:12:50.015Z,7.63
2022-08-23T04:15:16.710Z,7.85
2022-08-23T04:17:43.359Z,7.82
2022-08-23T04:20:10.052Z,7.78
2022-08-23T04:22:36.669Z,7.47
2022-08-23T04:25:04.725Z,7.30
2022-08-23T04:27:42.820Z,7.53
2022-08-23T04:30:09.717Z,7.47
2022-08-23T04:32:41.003Z,7.90
2022-08-23T04:35:10.083Z,7.53
2022-08-23T04:37:36.740Z,7.03
2022-08-23T04:40:23.469Z,6.70
2022-08-23T04:42:49.999Z,6.78
2022-08-23T04:45:16.573Z,7.22
2022-08-23T04:47:44.840Z,7.10
2022-08-23T04:50:11.523Z,6.57
2022-08-23T04:52:38.077Z,7.22
2022-08-23T04:55:05.115Z,7.22
2022-08-23T04:57:31.829Z,6.80
2022-08-23T04:59:58.336Z,7.35
2022-08-23T05:02:24.842Z,6.53
2022-08-23T05:04:51.356Z,6.57
2022-08-23T05:07:17.827Z,6.78
2022-08-23T05:09:44.425Z,6.55
2022-08-23T05:12:11.359Z,7.35
2022-08-23T05:14:38.152Z,6.10
2022-08-23T05:17:24.300Z,6.57
2022-08-23T05:19:50.784Z,6.72
2022-08-23T05:22:17.457Z,6.55
2022-08-23T05:24:44.057Z,6.85
2022-08-23T05:27:13.681Z,6.72
2022-08-23T05:29:40.618Z,6.35
2022-08-23T05:32:07.226Z,6.63
2022-08-23T05:34:33.920Z,7.15
2022-08-23T05:37:00.672Z,7.00
2022-08-23T05:39:36.730Z,7.00
2022-08-23T05:42:05.843Z,7.25
2022-08-23T05:44:36.516Z,7.03
2022-08-23T05:47:10.677Z,6.88
2022-08-23T05:49:38.967Z,7.15
2022-08-23T05:52:07.847Z,7.35
2022-08-23T05:54:35.632Z,7.38
2022-08-23T05:57:05.587Z,6.65
2022-08-23T05:59:32.079Z,7.22
2022-08-23T06:01:58.857Z,7.20
2022-08-23T06:04:25.464Z,7.28
2022-08-23T06:06:52.206Z,7.88
2022-08-23T06:09:19.501Z,7.50
2022-08-23T06:11:48.023Z,7.68
2022-08-23T06:14:15.436Z,7.72
2022-08-23T06:16:46.616Z,8.05
2022-08-23T06:19:14.592Z,8.38
2022-08-23T06:21:42.537Z,7.97
2022-08-23T06:24:09.979Z,7.85
2022-08-23T06:26:45.400Z,7.78
2022-08-23T06:29:17.459Z,8.00
2022-08-23T06:31:49.027Z,8.30
2022-08-23T06:34:18.477Z,8.85
2022-08-23T06:37:32.987Z,9.45
2022-08-23T06:40:02.380Z,9.02
2022-08-23T06:43:14.103Z,8.82
2022-08-23T06:46:00.989Z,9.15
2022-08-23T06:49:15.402Z,8.52
2022-08-23T06:52:05.378Z,9.25
2022-08-23T06:57:23.447Z,9.57
2022-08-23T06:59:50.184Z,9.68
2022-08-23T07:02:17.228Z,10.15
2022-08-23T07:04:43.979Z,10.27
2022-08-23T07:07:12.135Z,10.60
2022-08-23T07:09:40.158Z,10.40
2022-08-23T07:12:06.984Z,11.27
2022-08-23T07:14:33.980Z,10.77
2022-08-23T07:17:03.449Z,11.07
2022-08-23T07:19:33.056Z,11.55
2022-08-23T07:22:00.659Z,11.80
2022-08-23T07:24:32.316Z,11.38
2022-08-23T07:27:01.397Z,11.45
2022-08-23T07:29:28.618Z,11.70
2022-08-23T07:31:56.209Z,11.95
2022-08-23T07:34:23.488Z,12.15
2022-08-23T07:36:51.380Z,11.73
2022-08-23T07:39:19.001Z,10.52
2022-08-23T07:41:45.610Z,11.05
2022-08-23T07:44:15.087Z,10.88
2022-08-23T07:46:47.343Z,10.32
2022-08-23T07:49:15.234Z,10.48
2022-08-23T07:51:46.395Z,9.90
2022-08-23T07:54:12.933Z,10.15
2022-08-23T07:56:40.653Z,11.38
2022-08-23T08:10:13.907Z,10.80
2022-08-23T08:19:29.740Z,10.98
2022-08-23T08:22:13.355Z,10.82
2022-08-23T08:32:30.917Z,9.90
2022-08-23T08:34:57.355Z,10.23
2022-08-23T08:37:24.482Z,10.00
2022-08-23T08:39:52.046Z,9.43
2022-08-23T08:42:39.132Z,9.40
2022-08-23T08:45:10.695Z,9.30
2022-08-23T08:47:49.651Z,10.07
2022-08-23T08:50:26.478Z,8.02
2022-08-23T08:53:00.857Z,8.98
2022-08-23T08:55:36.673Z,8.88
2022-08-23T09:10:10.659Z,8.68
2022-08-23T09:22:43.130Z,6.72
2022-08-23T09:25:11.362Z,6.72
2022-08-23T09:27:40.057Z,6.75
2022-08-23T09:30:07.648Z,6.18
2022-08-23T09:32:39.546Z,6.90
2022-08-23T09:35:25.874Z,6.80
2022-08-23T09:38:03.684Z,7.28
2022-08-23T09:40:38.807Z,5.85
2022-08-23T09:43:26.275Z,5.30
2022-08-23T09:46:00.042Z,4.93
2022-08-23T09:48:32.885Z,5.50
2022-08-23T09:51:16.752Z,4.43
2022-08-23T09:53:50.036Z,4.53
2022-08-23T09:56:45.314Z,4.88
2022-08-23T09:59:45.953Z,5.07
2022-08-23T10:02:21.986Z,4.25
2022-08-23T10:05:29.241Z,4.32
2022-08-23T10:08:03.615Z,4.78
2022-08-23T10:10:51.068Z,3.60
2022-08-23T10:13:28.122Z,4.53
2022-08-23T10:16:34.252Z,3.65
2022-08-23T10:19:18.725Z,3.40
2022-08-23T10:22:13.013Z,3.50
2022-08-23T10:25:04.192Z,3.22
2022-08-23T10:28:24.630Z,3.55
2022-08-23T10:30:56.307Z,2.63
2022-08-23T10:33:48.289Z,2.60
2022-08-23T10:36:46.219Z,2.40
2022-08-23T10:39:47.083Z,2.85
2022-08-23T10:42:41.304Z,2.35
2022-08-23T10:45:25.428Z,2.60
2022-08-23T10:48:09.818Z,2.13
2022-08-23T10:50:55.690Z,2.08
2022-08-23T10:53:34.632Z,1.77
2022-08-23T10:56:41.514Z,2.08
2022-08-23T10:59:21.074Z,1.80
2022-08-23T11:01:58.447Z,1.63
2022-08-23T11:04:36.101Z,2.10
2022-08-23T11:07:29.615Z,2.13
2022-08-23T11:10:30.598Z,2.05
2022-08-23T11:13:07.055Z,2.45
2022-08-23T11:16:12.151Z,1.85
2022-08-23T11:18:47.350Z,2.00
2022-08-23T11:21:33.740Z,1.92
2022-08-23T11:24:04.972Z,2.40
2022-08-23T11:26:40.642Z,2.20
2022-08-23T11:29:10.208Z,2.20
2022-08-23T11:31:42.011Z,2.50
2022-08-23T11:34:29.745Z,1.80
2022-08-23T11:37:23.460Z,2.05
2022-08-23T11:40:00.218Z,1.73
2022-08-23T11:42:50.223Z,2.05
2022-08-23T11:45:30.179Z,1.90
2022-08-23T11:48:35.699Z,2.00
2022-08-23T11:51:14.941Z,1.80
2022-08-23T11:53:49.459Z,1.83
2022-08-23T11:56:46.423Z,2.58
2022-08-23T11:59:41.829Z,2.25
2022-08-23T12:02:48.187Z,2.10
2022-08-23T12:05:44.510Z,2.40
2022-08-23T12:08:18.064Z,2.30
2022-08-23T12:10:45.739Z,2.47
2022-08-23T12:13:23.268Z,2.55
2022-08-23T12:16:17.775Z,2.60
2022-08-23T12:18:48.388Z,2.53
2022-08-23T12:21:21.942Z,2.30
2022-08-23T12:23:53.342Z,2.13
2022-08-23T12:26:28.830Z,1.95
2022-08-23T12:29:41.315Z,1.95
2022-08-23T12:32:48.048Z,1.52
2022-08-23T12:35:40.920Z,1.55
2022-08-23T12:38:34.436Z,1.52
2022-08-23T12:41:34.704Z,1.35
2022-08-23T12:44:10.311Z,1.70
2022-08-23T12:46:51.914Z,1.73
2022-08-23T12:49:36.980Z,1.70
2022-08-23T12:52:11.033Z,1.85
2022-08-23T12:54:55.327Z,1.65
2022-08-23T12:57:36.731Z,1.90
2022-08-23T13:00:17.107Z,1.80
2022-08-23T13:03:13.405Z,1.95
2022-08-23T13:05:48.431Z,2.00
2022-08-23T13:08:34.131Z,1.95
2022-08-23T13:11:07.786Z,1.95
2022-08-23T13:13:42.807Z,1.83
2022-08-23T13:16:32.340Z,1.88
2022-08-23T13:19:22.704Z,1.92
2022-08-23T13:22:22.544Z,2.05
2022-08-23T13:27:58.220Z,1.92
2022-08-23T13:30:30.144Z,1.90
2022-08-23T13:33:09.543Z,2.08
2022-08-23T13:35:58.643Z,1.83
2022-08-23T13:41:12.151Z,2.30
2022-08-23T13:43:47.360Z,2.15
2022-08-23T13:46:31.565Z,1.67
2022-08-23T13:49:07.194Z,2.10
2022-08-23T13:51:38.828Z,1.98
2022-08-23T13:54:13.594Z,1.95
2022-08-23T13:56:53.401Z,1.92
2022-08-23T13:59:31.573Z,1.95
2022-08-23T14:02:07.527Z,2.17
2022-08-23T14:04:35.930Z,1.70
2022-08-23T14:07:04.342Z,1.83
2022-08-23T14:09:35.800Z,2.03
2022-08-23T14:12:18.030Z,1.55
2022-08-23T14:14:57.965Z,2.08
2022-08-23T14:17:27.861Z,2.00
2022-08-23T14:23:11.511Z,1.75
2022-08-23T14:25:49.784Z,1.58
2022-08-23T14:28:27.327Z,1.90
2022-08-23T14:30:58.580Z,1.73
2022-08-23T14:33:39.066Z,1.38
2022-08-23T14:36:15.071Z,2.00
2022-08-23T14:38:58.648Z,1.42
2022-08-23T14:41:31.255Z,1.88
2022-08-23T14:43:58.845Z,1.67
2022-08-23T14:46:36.207Z,1.55
2022-08-23T14:49:06.593Z,1.42
2022-08-23T14:51:43.180Z,1.85
2022-08-23T14:54:28.382Z,1.48
2022-08-23T14:56:55.589Z,1.63
2022-08-23T14:59:29.265Z,1.58
2022-08-23T15:02:01.421Z,1.30
2022-08-23T15:04:35.147Z,1.50
2022-08-23T15:07:18.047Z,1.83
2022-08-23T15:09:59.418Z,1.45
2022-08-23T15:15:25.712Z,1.58
2022-08-23T15:18:12.317Z,1.40
2022-08-23T15:20:47.440Z,1.33
2022-08-23T15:28:15.945Z,1.48
2022-08-23T15:30:45.306Z,1.33
2022-08-23T15:33:27.131Z,1.67
2022-08-23T15:35:59.623Z,1.80
2022-08-23T15:38:28.490Z,1.50
2022-08-23T15:41:01.895Z,1.33
2022-08-23T15:43:35.001Z,1.42
2022-08-23T15:46:16.379Z,1.67
2022-08-23T15:48:58.672Z,1.55
2022-08-23T15:51:27.233Z,1.60
2022-08-23T15:54:01.455Z,1.50
2022-08-23T15:56:56.792Z,1.38
2022-08-23T15:59:24.609Z,1.70
2022-08-23T16:02:00.798Z,1.70
2022-08-23T16:04:32.578Z,1.52
2022-08-23T16:07:10.241Z,1.52
2022-08-23T16:09:41.490Z,1.70
2022-08-23T16:12:10.212Z,1.42
2022-08-23T16:14:44.978Z,1.42
2022-08-23T16:17:22.182Z,1.70
2022-08-23T16:19:54.776Z,1.30
2022-08-23T16:22:24.696Z,1.70
2022-08-23T16:24:55.654Z,1.20
2022-08-23T16:27:32.691Z,2.03
2022-08-23T16:30:00.292Z,1.50
2022-08-23T16:32:31.656Z,1.70
2022-08-23T16:35:07.140Z,2.10
2022-08-23T16:37:36.805Z,2.10
2022-08-23T16:40:09.554Z,2.22
2022-08-23T16:42:49.991Z,2.22
2022-08-23T16:45:25.877Z,2.40
2022-08-23T16:48:00.217Z,2.00
2022-08-23T16:50:37.901Z,2.13
2022-08-23T16:53:12.256Z,1.92
2022-08-23T16:55:44.002Z,1.80
2022-08-23T16:58:11.905Z,2.22
2022-08-23T17:00:39.772Z,2.25
2022-08-23T17:03:15.491Z,2.40
2022-08-23T17:05:55.360Z,1.95
2022-08-23T17:08:23.470Z,2.20
2022-08-23T17:11:01.135Z,2.13
2022-08-23T17:13:30.882Z,2.20
2022-08-23T17:16:05.127Z,2.05
2022-08-23T17:18:39.232Z,1.92
2022-08-23T17:21:08.162Z,1.95
2022-08-23T17:23:41.069Z,1.83
2022-08-23T17:26:11.665Z,1.90
2022-08-23T17:28:46.271Z,2.15
2022-08-23T17:31:15.018Z,2.40
2022-08-23T17:33:43.124Z,2.47
2022-08-23T17:36:42.587Z,2.20
2022-08-23T17:39:19.448Z,2.55
2022-08-23T17:41:47.351Z,2.10
2022-08-23T17:44:17.942Z,2.40
2022-08-23T17:46:47.946Z,2.40
2022-08-23T17:51:43.869Z,2.45
2022-08-23T17:54:16.105Z,2.70
2022-08-23T17:56:50.241Z,2.22
2022-08-23T17:59:22.251Z,2.55
2022-08-23T18:01:50.230Z,2.67
2022-08-23T18:04:20.924Z,2.53
2022-08-23T18:06:49.620Z,2.42
2022-08-23T18:09:21.992Z,2.70
2022-08-23T18:11:49.243Z,2.60
2022-08-23T18:14:18.762Z,3.40
2022-08-23T18:16:47.262Z,2.95
2022-08-23T18:19:15.833Z,3.03
2022-08-23T18:21:44.233Z,2.83
2022-08-23T18:24:11.410Z,2.95
2022-08-23T18:26:59.764Z,3.22
2022-08-23T18:29:26.305Z,3.33
2022-08-23T18:31:53.563Z,3.83
2022-08-23T18:34:21.711Z,3.80
2022-08-23T18:37:01.814Z,3.60
2022-08-23T18:39:32.475Z,3.28
2022-08-23T18:42:06.736Z,4.03
2022-08-23T18:44:33.315Z,3.83
2022-08-23T18:47:03.773Z,3.63
2022-08-23T18:49:31.565Z,3.95
2022-08-23T18:51:57.982Z,4.05
2022-08-23T18:54:24.957Z,4.18
2022-08-23T18:57:03.547Z,4.25
2022-08-23T18:59:30.497Z,5.93
2022-08-23T19:01:57.142Z,5.63
2022-08-23T19:04:23.983Z,5.45
2022-08-23T19:06:53.472Z,6.30
2022-08-23T19:09:21.081Z,6.95
2022-08-23T19:11:47.646Z,7.65
2022-08-23T19:14:14.281Z,6.55
2022-08-23T19:16:48.366Z,7.03
2022-08-23T19:19:16.124Z,7.07
2022-08-23T19:21:42.756Z,7.43
2022-08-23T19:24:09.356Z,6.95
2022-08-23T19:26:37.573Z,7.20
2022-08-23T19:29:08.550Z,9.27
2022-08-23T19:31:41.754Z,7.38
2022-08-23T19:34:09.555Z,7.43
2022-08-23T19:37:00.691Z,7.00
2022-08-23T19:39:29.023Z,7.22
2022-08-23T19:41:55.615Z,6.88
2022-08-23T19:44:22.727Z,7.55
2022-08-23T19:46:57.407Z,7.50
2022-08-23T19:49:24.138Z,7.28
2022-08-23T19:51:50.670Z,7.13
2022-08-23T19:54:17.302Z,6.85
2022-08-23T19:57:45.460Z,6.97
2022-08-23T20:00:19.317Z,7.47
2022-08-23T20:02:47.143Z,7.85
2022-08-23T20:05:13.634Z,6.68
2022-08-23T20:07:40.531Z,6.47
2022-08-23T20:10:08.685Z,6.38
2022-08-23T20:12:35.442Z,6.50
2022-08-23T20:15:02.541Z,6.80
2022-08-23T20:18:08.857Z,6.05
2022-08-23T20:20:35.397Z,6.45
2022-08-23T20:23:20.392Z,6.90
2022-08-23T20:25:46.934Z,6.18
2022-08-23T20:28:13.366Z,6.43
2022-08-23T20:30:40.269Z,7.05
2022-08-23T20:33:06.810Z,6.53
2022-08-23T20:35:33.383Z,7.32
2022-08-23T20:38:03.152Z,7.03
2022-08-23T20:40:30.016Z,7.00
2022-08-23T20:42:56.681Z,6.70
2022-08-23T20:45:23.471Z,6.72
2022-08-23T20:47:50.118Z,6.47
2022-08-23T20:50:17.202Z,6.78
2022-08-23T20:52:44.239Z,6.03
2022-08-23T20:55:13.758Z,5.82
2022-08-23T20:58:07.685Z,5.80
2022-08-23T21:00:34.234Z,5.68
2022-08-23T21:03:00.946Z,5.68
2022-08-23T21:05:27.519Z,5.22
2022-08-23T21:07:55.742Z,5.65
2022-08-23T21:10:22.628Z,5.55
2022-08-23T21:12:49.128Z,4.50
2022-08-23T21:15:15.610Z,4.82
2022-08-23T21:17:46.746Z,4.95
2022-08-23T21:20:14.329Z,4.68
2022-08-23T21:22:41.299Z,4.43
2022-08-23T21:25:08.319Z,4.20
2022-08-23T21:27:49.437Z,4.57
2022-08-23T21:30:16.317Z,4.63
2022-08-23T21:32:42.765Z,4.38
2022-08-23T21:35:09.916Z,4.30
2022-08-23T21:38:09.459Z,4.95
2022-08-23T21:40:36.129Z,4.80
2022-08-23T21:43:02.968Z,4.07
2022-08-23T21:45:29.717Z,4.35
2022-08-23T21:48:01.381Z,3.90
2022-08-23T21:50:28.713Z,4.63
2022-08-23T21:52:56.761Z,4.47
2022-08-23T21:55:34.437Z,4.53
2022-08-23T21:58:03.802Z,4.60
2022-08-23T22:00:30.659Z,3.92
2022-08-23T22:02:57.623Z,4.10
2022-08-23T22:05:26.497Z,4.57
2022-08-23T22:07:53.756Z,4.13
2022-08-23T22:10:21.818Z,4.20
2022-08-23T22:12:48.624Z,4.10
2022-08-23T22:15:16.297Z,4.28
2022-08-23T22:17:55.548Z,3.80
2022-08-23T22:20:22.023Z,4.10
2022-08-23T22:22:50.382Z,4.47
2022-08-23T22:25:17.439Z,4.50
2022-08-23T22:27:57.596Z,4.45
2022-08-23T22:30:24.919Z,4.65
2022-08-23T22:32:51.465Z,4.80
2022-08-23T22:35:18.503Z,5.00
2022-08-23T22:38:10.201Z,5.00
2022-08-23T22:40:33.987Z,4.93
2022-08-23T22:43:00.541Z,5.20
2022-08-23T22:45:30.029Z,5.90
2022-08-23T22:48:40.340Z,5.35
2022-08-23T22:51:19.424Z,5.82
2022-08-23T22:53:50.015Z,6.53
2022-08-23T23:00:42.270Z,5.82
2022-08-23T23:03:09.216Z,6.32
2022-08-23T23:05:37.690Z,6.80
2022-08-23T23:08:23.250Z,6.40
2022-08-23T23:10:49.806Z,6.45
2022-08-23T23:13:16.591Z,6.70
2022-08-23T23:15:54.726Z,6.85
2022-08-23T23:18:23.655Z,5.88
2022-08-23T23:20:50.445Z,6.50
2022-08-23T23:23:20.682Z,6.10
2022-08-23T23:25:59.834Z,6.18
2022-08-23T23:28:27.268Z,6.00
2022-08-23T23:30:55.635Z,5.95
2022-08-23T23:33:23.512Z,6.22
2022-08-23T23:35:59.671Z,5.75
2022-08-23T23:38:26.185Z,5.53
2022-08-23T23:40:52.740Z,6.03
2022-08-23T23:43:19.299Z,6.30
2022-08-23T23:46:12.046Z,6.32
2022-08-23T23:48:39.672Z,6.10
2022-08-23T23:51:08.454Z,5.30
2022-08-23T23:53:36.691Z,5.40
2022-08-23T23:56:21.862Z,6.20
2022-08-23T23:58:50.963Z,5.40
